sensor_id;sensor_type;location;lat;lon;timestamp;P1;durP1;ratioP1;P2;durP2;ratioP2
54430;SDS011;40342;52.998;5.862;2023-05-07T00:00:58;7.55;;;5.13;;
54430;SDS011;40342;52.998;5.862;2023-05-07T00:03:24;5.30;;;4.72;;
54430;SDS011;40342;52.998;5.862;2023-05-07T00:05:51;5.35;;;4.60;;
54430;SDS011;40342;52.998;5.862;2023-05-07T00:08:17;5.93;;;5.35;;
54430;SDS011;40342;52.998;5.862;2023-05-07T00:10:43;5.15;;;4.60;;
54430;SDS011;40342;52.998;5.862;2023-05-07T00:13:09;5.20;;;4.70;;
54430;SDS011;40342;52.998;5.862;2023-05-07T00:15:35;5.93;;;4.57;;
54430;SDS011;40342;52.998;5.862;2023-05-07T00:18:01;5.82;;;4.97;;
54430;SDS011;40342;52.998;5.862;2023-05-07T00:20:26;6.30;;;5.32;;
54430;SDS011;40342;52.998;5.862;2023-05-07T00:22:52;5.05;;;4.55;;
54430;SDS011;40342;52.998;5.862;2023-05-07T00:25:18;4.78;;;4.38;;
54430;SDS011;40342;52.998;5.862;2023-05-07T00:27:44;4.70;;;4.30;;
54430;SDS011;40342;52.998;5.862;2023-05-07T00:30:10;5.18;;;4.68;;
54430;SDS011;40342;52.998;5.862;2023-05-07T00:32:36;5.35;;;4.85;;
54430;SDS011;40342;52.998;5.862;2023-05-07T00:35:02;5.13;;;4.63;;
54430;SDS011;40342;52.998;5.862;2023-05-07T00:37:28;5.53;;;4.88;;
54430;SDS011;40342;52.998;5.862;2023-05-07T00:39:55;4.82;;;4.20;;
54430;SDS011;40342;52.998;5.862;2023-05-07T00:42:20;5.20;;;4.70;;
54430;SDS011;40342;52.998;5.862;2023-05-07T00:44:46;4.40;;;4.00;;
54430;SDS011;40342;52.998;5.862;2023-05-07T00:47:12;6.63;;;4.72;;
54430;SDS011;40342;52.998;5.862;2023-05-07T00:49:39;4.93;;;4.30;;
54430;SDS011;40342;52.998;5.862;2023-05-07T00:52:06;4.95;;;4.50;;
54430;SDS011;40342;52.998;5.862;2023-05-07T00:54:34;4.40;;;4.00;;
54430;SDS011;40342;52.998;5.862;2023-05-07T00:57:00;5.43;;;4.90;;
54430;SDS011;40342;52.998;5.862;2023-05-07T00:59:27;4.68;;;4.28;;
54430;SDS011;40342;52.998;5.862;2023-05-07T01:01:53;5.35;;;4.85;;
54430;SDS011;40342;52.998;5.862;2023-05-07T01:04:19;4.85;;;4.35;;
54430;SDS011;40342;52.998;5.862;2023-05-07T01:06:44;5.53;;;4.35;;
54430;SDS011;40342;52.998;5.862;2023-05-07T01:09:11;7.47;;;4.65;;
54430;SDS011;40342;52.998;5.862;2023-05-07T01:11:37;5.43;;;4.40;;
54430;SDS011;40342;52.998;5.862;2023-05-07T01:14:04;6.28;;;4.60;;
54430;SDS011;40342;52.998;5.862;2023-05-07T01:16:30;6.80;;;5.03;;
54430;SDS011;40342;52.998;5.862;2023-05-07T01:18:56;5.53;;;4.72;;
54430;SDS011;40342;52.998;5.862;2023-05-07T01:21:25;4.68;;;4.20;;
54430;SDS011;40342;52.998;5.862;2023-05-07T01:23:51;5.63;;;4.65;;
54430;SDS011;40342;52.998;5.862;2023-05-07T01:26:20;5.95;;;4.72;;
54430;SDS011;40342;52.998;5.862;2023-05-07T01:28:47;4.85;;;4.35;;
54430;SDS011;40342;52.998;5.862;2023-05-07T01:31:12;5.10;;;4.55;;
54430;SDS011;40342;52.998;5.862;2023-05-07T01:33:40;4.95;;;4.45;;
54430;SDS011;40342;52.998;5.862;2023-05-07T01:36:06;4.35;;;3.95;;
54430;SDS011;40342;52.998;5.862;2023-05-07T01:38:33;7.47;;;4.65;;
54430;SDS011;40342;52.998;5.862;2023-05-07T01:41:01;4.65;;;4.25;;
54430;SDS011;40342;52.998;5.862;2023-05-07T01:43:28;4.25;;;3.85;;
54430;SDS011;40342;52.998;5.862;2023-05-07T01:45:54;6.22;;;4.25;;
54430;SDS011;40342;52.998;5.862;2023-05-07T01:48:20;4.40;;;4.00;;
54430;SDS011;40342;52.998;5.862;2023-05-07T01:50:46;4.30;;;3.90;;
54430;SDS011;40342;52.998;5.862;2023-05-07T01:53:12;4.25;;;3.55;;
54430;SDS011;40342;52.998;5.862;2023-05-07T01:55:38;4.10;;;3.70;;
54430;SDS011;40342;52.998;5.862;2023-05-07T01:58:05;4.63;;;4.10;;
54430;SDS011;40342;52.998;5.862;2023-05-07T02:00:30;4.00;;;3.65;;
54430;SDS011;40342;52.998;5.862;2023-05-07T02:02:56;4.38;;;3.97;;
54430;SDS011;40342;52.998;5.862;2023-05-07T02:05:22;4.00;;;3.70;;
54430;SDS011;40342;52.998;5.862;2023-05-07T02:07:51;4.03;;;3.63;;
54430;SDS011;40342;52.998;5.862;2023-05-07T02:10:16;6.22;;;3.78;;
54430;SDS011;40342;52.998;5.862;2023-05-07T02:12:42;3.80;;;3.50;;
54430;SDS011;40342;52.998;5.862;2023-05-07T02:15:08;3.90;;;3.60;;
54430;SDS011;40342;52.998;5.862;2023-05-07T02:17:33;4.13;;;3.83;;
54430;SDS011;40342;52.998;5.862;2023-05-07T02:20:00;4.30;;;4.00;;
54430;SDS011;40342;52.998;5.862;2023-05-07T02:22:26;4.15;;;3.75;;
54430;SDS011;40342;52.998;5.862;2023-05-07T02:24:51;4.03;;;3.70;;
54430;SDS011;40342;52.998;5.862;2023-05-07T02:27:17;4.15;;;3.75;;
54430;SDS011;40342;52.998;5.862;2023-05-07T02:29:42;4.07;;;3.67;;
54430;SDS011;40342;52.998;5.862;2023-05-07T02:32:08;4.70;;;4.18;;
54430;SDS011;40342;52.998;5.862;2023-05-07T02:34:33;4.88;;;4.38;;
54430;SDS011;40342;52.998;5.862;2023-05-07T02:36:59;4.35;;;3.95;;
54430;SDS011;40342;52.998;5.862;2023-05-07T02:39:25;4.85;;;4.45;;
54430;SDS011;40342;52.998;5.862;2023-05-07T02:41:50;6.10;;;5.15;;
54430;SDS011;40342;52.998;5.862;2023-05-07T02:44:16;5.88;;;4.75;;
54430;SDS011;40342;52.998;5.862;2023-05-07T02:46:41;5.70;;;4.80;;
54430;SDS011;40342;52.998;5.862;2023-05-07T02:49:07;5.15;;;4.45;;
54430;SDS011;40342;52.998;5.862;2023-05-07T02:51:32;5.38;;;4.88;;
54430;SDS011;40342;52.998;5.862;2023-05-07T02:53:58;6.70;;;5.15;;
54430;SDS011;40342;52.998;5.862;2023-05-07T02:56:25;6.10;;;5.03;;
54430;SDS011;40342;52.998;5.862;2023-05-07T02:58:51;5.80;;;5.30;;
54430;SDS011;40342;52.998;5.862;2023-05-07T03:01:17;7.55;;;5.80;;
54430;SDS011;40342;52.998;5.862;2023-05-07T03:03:42;6.18;;;5.57;;
54430;SDS011;40342;52.998;5.862;2023-05-07T03:06:09;6.78;;;6.10;;
54430;SDS011;40342;52.998;5.862;2023-05-07T03:08:34;6.88;;;6.18;;
54430;SDS011;40342;52.998;5.862;2023-05-07T03:11:00;6.78;;;5.65;;
54430;SDS011;40342;52.998;5.862;2023-05-07T03:13:25;7.78;;;6.22;;
54430;SDS011;40342;52.998;5.862;2023-05-07T03:15:51;6.75;;;5.65;;
54430;SDS011;40342;52.998;5.862;2023-05-07T03:18:16;6.63;;;6.03;;
54430;SDS011;40342;52.998;5.862;2023-05-07T03:20:42;6.63;;;5.82;;
54430;SDS011;40342;52.998;5.862;2023-05-07T03:23:07;8.52;;;5.65;;
54430;SDS011;40342;52.998;5.862;2023-05-07T03:25:33;6.40;;;5.75;;
54430;SDS011;40342;52.998;5.862;2023-05-07T03:27:59;6.47;;;5.65;;
54430;SDS011;40342;52.998;5.862;2023-05-07T03:30:24;6.45;;;5.75;;
54430;SDS011;40342;52.998;5.862;2023-05-07T03:32:50;6.43;;;5.80;;
54430;SDS011;40342;52.998;5.862;2023-05-07T03:35:15;7.25;;;6.35;;
54430;SDS011;40342;52.998;5.862;2023-05-07T03:37:41;6.55;;;5.93;;
54430;SDS011;40342;52.998;5.862;2023-05-07T03:40:07;6.88;;;6.18;;
54430;SDS011;40342;52.998;5.862;2023-05-07T03:42:35;6.30;;;5.65;;
54430;SDS011;40342;52.998;5.862;2023-05-07T03:45:00;7.90;;;6.50;;
54430;SDS011;40342;52.998;5.862;2023-05-07T03:47:26;7.45;;;6.20;;
54430;SDS011;40342;52.998;5.862;2023-05-07T03:49:51;8.82;;;6.50;;
54430;SDS011;40342;52.998;5.862;2023-05-07T03:52:19;6.60;;;6.00;;
54430;SDS011;40342;52.998;5.862;2023-05-07T03:54:48;6.65;;;5.95;;
54430;SDS011;40342;52.998;5.862;2023-05-07T03:57:14;6.88;;;6.20;;
54430;SDS011;40342;52.998;5.862;2023-05-07T03:59:40;8.32;;;6.15;;
54430;SDS011;40342;52.998;5.862;2023-05-07T04:02:05;7.30;;;6.22;;
54430;SDS011;40342;52.998;5.862;2023-05-07T04:04:31;6.53;;;5.93;;
54430;SDS011;40342;52.998;5.862;2023-05-07T04:06:57;7.20;;;6.47;;
54430;SDS011;40342;52.998;5.862;2023-05-07T04:09:24;7.40;;;6.70;;
54430;SDS011;40342;52.998;5.862;2023-05-07T04:11:50;6.75;;;6.13;;
54430;SDS011;40342;52.998;5.862;2023-05-07T04:14:15;9.20;;;6.88;;
54430;SDS011;40342;52.998;5.862;2023-05-07T04:16:41;7.57;;;6.55;;
54430;SDS011;40342;52.998;5.862;2023-05-07T04:19:07;7.03;;;6.30;;
54430;SDS011;40342;52.998;5.862;2023-05-07T04:21:32;7.35;;;6.20;;
54430;SDS011;40342;52.998;5.862;2023-05-07T04:23:58;7.32;;;6.20;;
54430;SDS011;40342;52.998;5.862;2023-05-07T04:26:23;7.18;;;6.38;;
54430;SDS011;40342;52.998;5.862;2023-05-07T04:28:49;8.00;;;6.95;;
54430;SDS011;40342;52.998;5.862;2023-05-07T04:31:15;8.38;;;7.47;;
54430;SDS011;40342;52.998;5.862;2023-05-07T04:33:40;9.57;;;7.70;;
54430;SDS011;40342;52.998;5.862;2023-05-07T04:36:06;8.23;;;7.25;;
54430;SDS011;40342;52.998;5.862;2023-05-07T04:38:32;8.52;;;7.43;;
54430;SDS011;40342;52.998;5.862;2023-05-07T04:41:02;9.15;;;7.60;;
54430;SDS011;40342;52.998;5.862;2023-05-07T04:43:29;11.25;;;7.63;;
54430;SDS011;40342;52.998;5.862;2023-05-07T04:45:54;8.13;;;6.85;;
54430;SDS011;40342;52.998;5.862;2023-05-07T04:48:20;8.70;;;7.32;;
54430;SDS011;40342;52.998;5.862;2023-05-07T04:50:51;8.75;;;6.82;;
54430;SDS011;40342;52.998;5.862;2023-05-07T04:53:17;10.35;;;7.35;;
54430;SDS011;40342;52.998;5.862;2023-05-07T04:55:43;8.50;;;7.53;;
54430;SDS011;40342;52.998;5.862;2023-05-07T04:58:10;10.40;;;8.60;;
54430;SDS011;40342;52.998;5.862;2023-05-07T05:00:36;9.85;;;8.27;;
54430;SDS011;40342;52.998;5.862;2023-05-07T05:03:03;10.82;;;7.72;;
54430;SDS011;40342;52.998;5.862;2023-05-07T05:05:28;8.25;;;7.05;;
54430;SDS011;40342;52.998;5.862;2023-05-07T05:07:54;11.25;;;8.10;;
54430;SDS011;40342;52.998;5.862;2023-05-07T05:10:20;10.05;;;8.10;;
54430;SDS011;40342;52.998;5.862;2023-05-07T05:12:46;10.95;;;8.32;;
54430;SDS011;40342;52.998;5.862;2023-05-07T05:15:12;9.40;;;7.93;;
54430;SDS011;40342;52.998;5.862;2023-05-07T05:17:38;11.07;;;9.13;;
54430;SDS011;40342;52.998;5.862;2023-05-07T05:20:04;9.98;;;8.98;;
54430;SDS011;40342;52.998;5.862;2023-05-07T05:22:30;11.68;;;8.52;;
54430;SDS011;40342;52.998;5.862;2023-05-07T05:24:56;10.70;;;8.35;;
54430;SDS011;40342;52.998;5.862;2023-05-07T05:27:22;11.77;;;8.60;;
54430;SDS011;40342;52.998;5.862;2023-05-07T05:29:48;11.98;;;8.57;;
54430;SDS011;40342;52.998;5.862;2023-05-07T05:32:13;12.65;;;9.77;;
54430;SDS011;40342;52.998;5.862;2023-05-07T05:34:39;9.93;;;8.60;;
54430;SDS011;40342;52.998;5.862;2023-05-07T05:37:04;10.93;;;8.45;;
54430;SDS011;40342;52.998;5.862;2023-05-07T05:39:30;10.18;;;8.07;;
54430;SDS011;40342;52.998;5.862;2023-05-07T05:41:56;11.05;;;8.55;;
54430;SDS011;40342;52.998;5.862;2023-05-07T05:44:21;10.25;;;8.52;;
54430;SDS011;40342;52.998;5.862;2023-05-07T05:46:47;10.55;;;8.85;;
54430;SDS011;40342;52.998;5.862;2023-05-07T05:49:14;10.63;;;8.98;;
54430;SDS011;40342;52.998;5.862;2023-05-07T05:51:40;11.45;;;9.07;;
54430;SDS011;40342;52.998;5.862;2023-05-07T05:54:05;10.82;;;8.90;;
54430;SDS011;40342;52.998;5.862;2023-05-07T05:56:31;12.38;;;9.40;;
54430;SDS011;40342;52.998;5.862;2023-05-07T05:58:57;11.27;;;8.73;;
54430;SDS011;40342;52.998;5.862;2023-05-07T06:01:23;11.75;;;9.00;;
54430;SDS011;40342;52.998;5.862;2023-05-07T06:03:48;11.40;;;9.00;;
54430;SDS011;40342;52.998;5.862;2023-05-07T06:06:14;12.18;;;9.27;;
54430;SDS011;40342;52.998;5.862;2023-05-07T06:08:39;10.30;;;8.90;;
54430;SDS011;40342;52.998;5.862;2023-05-07T06:11:05;11.73;;;9.02;;
54430;SDS011;40342;52.998;5.862;2023-05-07T06:13:30;11.52;;;9.43;;
54430;SDS011;40342;52.998;5.862;2023-05-07T06:15:56;11.88;;;9.18;;
54430;SDS011;40342;52.998;5.862;2023-05-07T06:18:22;12.85;;;9.63;;
54430;SDS011;40342;52.998;5.862;2023-05-07T06:20:47;14.45;;;10.38;;
54430;SDS011;40342;52.998;5.862;2023-05-07T06:23:13;12.38;;;9.95;;
54430;SDS011;40342;52.998;5.862;2023-05-07T06:25:39;13.35;;;9.93;;
54430;SDS011;40342;52.998;5.862;2023-05-07T06:28:05;11.32;;;9.13;;
54430;SDS011;40342;52.998;5.862;2023-05-07T06:30:31;11.35;;;9.27;;
54430;SDS011;40342;52.998;5.862;2023-05-07T06:32:56;10.98;;;9.40;;
54430;SDS011;40342;52.998;5.862;2023-05-07T06:35:22;12.50;;;8.75;;
54430;SDS011;40342;52.998;5.862;2023-05-07T06:37:47;12.60;;;9.35;;
54430;SDS011;40342;52.998;5.862;2023-05-07T06:40:15;14.77;;;9.85;;
54430;SDS011;40342;52.998;5.862;2023-05-07T06:42:41;13.13;;;9.45;;
54430;SDS011;40342;52.998;5.862;2023-05-07T06:45:07;10.40;;;8.95;;
54430;SDS011;40342;52.998;5.862;2023-05-07T06:47:33;11.15;;;9.23;;
54430;SDS011;40342;52.998;5.862;2023-05-07T06:49:59;9.98;;;8.90;;
54430;SDS011;40342;52.998;5.862;2023-05-07T06:52:25;12.82;;;9.77;;
54430;SDS011;40342;52.998;5.862;2023-05-07T06:54:51;10.55;;;9.45;;
54430;SDS011;40342;52.998;5.862;2023-05-07T06:57:16;10.02;;;8.70;;
54430;SDS011;40342;52.998;5.862;2023-05-07T06:59:42;10.65;;;8.95;;
54430;SDS011;40342;52.998;5.862;2023-05-07T07:02:07;12.65;;;9.30;;
54430;SDS011;40342;52.998;5.862;2023-05-07T07:04:33;12.27;;;9.18;;
54430;SDS011;40342;52.998;5.862;2023-05-07T07:06:59;11.43;;;9.10;;
54430;SDS011;40342;52.998;5.862;2023-05-07T07:09:24;10.57;;;8.70;;
54430;SDS011;40342;52.998;5.862;2023-05-07T07:11:50;13.15;;;8.73;;
54430;SDS011;40342;52.998;5.862;2023-05-07T07:14:16;11.93;;;8.95;;
54430;SDS011;40342;52.998;5.862;2023-05-07T07:16:41;11.02;;;8.23;;
54430;SDS011;40342;52.998;5.862;2023-05-07T07:19:07;9.63;;;8.52;;
54430;SDS011;40342;52.998;5.862;2023-05-07T07:21:33;12.80;;;8.45;;
54430;SDS011;40342;52.998;5.862;2023-05-07T07:23:58;11.05;;;9.50;;
54430;SDS011;40342;52.998;5.862;2023-05-07T07:26:24;10.48;;;8.25;;
54430;SDS011;40342;52.998;5.862;2023-05-07T07:28:50;10.95;;;8.55;;
54430;SDS011;40342;52.998;5.862;2023-05-07T07:31:15;9.23;;;8.27;;
54430;SDS011;40342;52.998;5.862;2023-05-07T07:33:41;11.82;;;8.85;;
54430;SDS011;40342;52.998;5.862;2023-05-07T07:36:06;12.80;;;8.18;;
54430;SDS011;40342;52.998;5.862;2023-05-07T07:38:32;9.27;;;7.85;;
54430;SDS011;40342;52.998;5.862;2023-05-07T07:40:58;8.48;;;7.57;;
54430;SDS011;40342;52.998;5.862;2023-05-07T07:43:24;10.13;;;8.55;;
54430;SDS011;40342;52.998;5.862;2023-05-07T07:45:50;9.00;;;7.90;;
54430;SDS011;40342;52.998;5.862;2023-05-07T07:48:16;11.50;;;8.40;;
54430;SDS011;40342;52.998;5.862;2023-05-07T07:50:41;9.40;;;8.02;;
54430;SDS011;40342;52.998;5.862;2023-05-07T07:53:07;9.48;;;7.88;;
54430;SDS011;40342;52.998;5.862;2023-05-07T07:55:34;10.18;;;7.88;;
54430;SDS011;40342;52.998;5.862;2023-05-07T07:58:03;10.98;;;8.52;;
54430;SDS011;40342;52.998;5.862;2023-05-07T08:00:29;9.63;;;7.70;;
54430;SDS011;40342;52.998;5.862;2023-05-07T08:02:54;9.30;;;8.00;;
54430;SDS011;40342;52.998;5.862;2023-05-07T08:05:20;12.30;;;8.55;;
54430;SDS011;40342;52.998;5.862;2023-05-07T08:07:46;9.38;;;8.07;;
54430;SDS011;40342;52.998;5.862;2023-05-07T08:10:16;10.48;;;8.15;;
54430;SDS011;40342;52.998;5.862;2023-05-07T08:12:47;10.75;;;8.45;;
54430;SDS011;40342;52.998;5.862;2023-05-07T08:15:13;9.73;;;8.32;;
54430;SDS011;40342;52.998;5.862;2023-05-07T08:17:39;9.65;;;7.85;;
54430;SDS011;40342;52.998;5.862;2023-05-07T08:20:05;9.60;;;7.00;;
54430;SDS011;40342;52.998;5.862;2023-05-07T08:22:31;11.65;;;8.80;;
54430;SDS011;40342;52.998;5.862;2023-05-07T08:24:57;10.07;;;7.57;;
54430;SDS011;40342;52.998;5.862;2023-05-07T08:27:23;10.40;;;7.85;;
54430;SDS011;40342;52.998;5.862;2023-05-07T08:29:48;10.15;;;8.02;;
54430;SDS011;40342;52.998;5.862;2023-05-07T08:32:14;11.20;;;8.05;;
54430;SDS011;40342;52.998;5.862;2023-05-07T08:34:40;10.43;;;8.25;;
54430;SDS011;40342;52.998;5.862;2023-05-07T08:37:06;8.35;;;7.47;;
54430;SDS011;40342;52.998;5.862;2023-05-07T08:39:31;8.75;;;7.93;;
54430;SDS011;40342;52.998;5.862;2023-05-07T08:41:57;9.32;;;7.78;;
54430;SDS011;40342;52.998;5.862;2023-05-07T08:44:26;8.82;;;7.95;;
54430;SDS011;40342;52.998;5.862;2023-05-07T08:46:53;11.02;;;8.38;;
54430;SDS011;40342;52.998;5.862;2023-05-07T08:49:20;9.38;;;8.32;;
54430;SDS011;40342;52.998;5.862;2023-05-07T08:51:46;10.65;;;8.70;;
54430;SDS011;40342;52.998;5.862;2023-05-07T08:54:12;12.02;;;9.18;;
54430;SDS011;40342;52.998;5.862;2023-05-07T08:56:41;9.13;;;8.23;;
54430;SDS011;40342;52.998;5.862;2023-05-07T08:59:07;11.27;;;8.63;;
54430;SDS011;40342;52.998;5.862;2023-05-07T09:01:32;9.40;;;8.38;;
54430;SDS011;40342;52.998;5.862;2023-05-07T09:04:00;9.18;;;8.27;;
54430;SDS011;40342;52.998;5.862;2023-05-07T09:06:26;10.10;;;8.68;;
54430;SDS011;40342;52.998;5.862;2023-05-07T09:08:52;9.18;;;7.78;;
54430;SDS011;40342;52.998;5.862;2023-05-07T09:11:19;9.80;;;8.50;;
54430;SDS011;40342;52.998;5.862;2023-05-07T09:13:46;9.18;;;8.27;;
54430;SDS011;40342;52.998;5.862;2023-05-07T09:16:12;9.88;;;8.68;;
54430;SDS011;40342;52.998;5.862;2023-05-07T09:18:44;9.98;;;8.77;;
54430;SDS011;40342;52.998;5.862;2023-05-07T09:21:16;10.75;;;8.93;;
54430;SDS011;40342;52.998;5.862;2023-05-07T09:23:43;9.70;;;8.63;;
54430;SDS011;40342;52.998;5.862;2023-05-07T09:26:08;10.05;;;8.98;;
54430;SDS011;40342;52.998;5.862;2023-05-07T09:28:40;11.63;;;8.52;;
54430;SDS011;40342;52.998;5.862;2023-05-07T09:31:07;9.35;;;7.82;;
54430;SDS011;40342;52.998;5.862;2023-05-07T09:33:33;9.02;;;8.02;;
54430;SDS011;40342;52.998;5.862;2023-05-07T09:36:03;9.25;;;8.20;;
54430;SDS011;40342;52.998;5.862;2023-05-07T09:38:30;9.52;;;8.20;;
54430;SDS011;40342;52.998;5.862;2023-05-07T09:43:32;8.88;;;7.97;;
54430;SDS011;40342;52.998;5.862;2023-05-07T09:46:14;9.57;;;8.57;;
54430;SDS011;40342;52.998;5.862;2023-05-07T09:48:42;9.07;;;8.13;;
54430;SDS011;40342;52.998;5.862;2023-05-07T09:51:15;9.45;;;8.52;;
54430;SDS011;40342;52.998;5.862;2023-05-07T09:53:50;9.13;;;8.20;;
54430;SDS011;40342;52.998;5.862;2023-05-07T09:56:18;10.80;;;8.77;;
54430;SDS011;40342;52.998;5.862;2023-05-07T09:58:45;9.25;;;8.35;;
54430;SDS011;40342;52.998;5.862;2023-05-07T10:01:11;11.00;;;9.00;;
54430;SDS011;40342;52.998;5.862;2023-05-07T10:03:39;10.77;;;8.43;;
54430;SDS011;40342;52.998;5.862;2023-05-07T10:06:08;10.93;;;8.80;;
54430;SDS011;40342;52.998;5.862;2023-05-07T10:08:35;9.95;;;7.55;;
54430;SDS011;40342;52.998;5.862;2023-05-07T10:11:02;9.15;;;7.95;;
54430;SDS011;40342;52.998;5.862;2023-05-07T10:13:29;9.70;;;8.43;;
54430;SDS011;40342;52.998;5.862;2023-05-07T10:15:54;8.95;;;7.93;;
54430;SDS011;40342;52.998;5.862;2023-05-07T10:18:21;10.90;;;9.05;;
54430;SDS011;40342;52.998;5.862;2023-05-07T10:20:54;10.00;;;8.43;;
54430;SDS011;40342;52.998;5.862;2023-05-07T10:23:23;9.95;;;8.55;;
54430;SDS011;40342;52.998;5.862;2023-05-07T10:25:49;9.18;;;8.20;;
54430;SDS011;40342;52.998;5.862;2023-05-07T10:28:15;9.00;;;8.10;;
54430;SDS011;40342;52.998;5.862;2023-05-07T10:30:56;10.63;;;8.40;;
54430;SDS011;40342;52.998;5.862;2023-05-07T10:33:30;9.48;;;8.48;;
54430;SDS011;40342;52.998;5.862;2023-05-07T10:35:58;9.82;;;8.00;;
54430;SDS011;40342;52.998;5.862;2023-05-07T10:38:25;9.05;;;8.15;;
54430;SDS011;40342;52.998;5.862;2023-05-07T10:40:52;8.73;;;7.85;;
54430;SDS011;40342;52.998;5.862;2023-05-07T10:43:18;8.35;;;7.50;;
54430;SDS011;40342;52.998;5.862;2023-05-07T10:45:53;9.05;;;7.72;;
54430;SDS011;40342;52.998;5.862;2023-05-07T10:49:06;9.30;;;8.32;;
54430;SDS011;40342;52.998;5.862;2023-05-07T10:51:32;8.93;;;7.93;;
54430;SDS011;40342;52.998;5.862;2023-05-07T10:56:40;9.65;;;8.00;;
54430;SDS011;40342;52.998;5.862;2023-05-07T11:01:53;9.30;;;8.02;;
54430;SDS011;40342;52.998;5.862;2023-05-07T11:04:20;8.70;;;7.82;;
54430;SDS011;40342;52.998;5.862;2023-05-07T11:12:17;8.73;;;7.93;;
54430;SDS011;40342;52.998;5.862;2023-05-07T11:15:05;9.15;;;7.95;;
54430;SDS011;40342;52.998;5.862;2023-05-07T11:17:56;8.15;;;7.35;;
54430;SDS011;40342;52.998;5.862;2023-05-07T11:26:03;8.02;;;7.25;;
54430;SDS011;40342;52.998;5.862;2023-05-07T11:28:37;8.35;;;7.55;;
54430;SDS011;40342;52.998;5.862;2023-05-07T11:31:07;10.07;;;8.27;;
54430;SDS011;40342;52.998;5.862;2023-05-07T11:33:33;9.00;;;8.15;;
54430;SDS011;40342;52.998;5.862;2023-05-07T11:36:00;8.68;;;7.78;;
54430;SDS011;40342;52.998;5.862;2023-05-07T11:38:28;8.65;;;7.85;;
54430;SDS011;40342;52.998;5.862;2023-05-07T11:40:55;9.63;;;7.82;;
54430;SDS011;40342;52.998;5.862;2023-05-07T11:43:22;9.27;;;7.80;;
54430;SDS011;40342;52.998;5.862;2023-05-07T11:45:48;10.18;;;7.97;;
54430;SDS011;40342;52.998;5.862;2023-05-07T11:48:15;8.63;;;7.72;;
54430;SDS011;40342;52.998;5.862;2023-05-07T15:49:06;3.40;;;3.10;;
54430;SDS011;40342;52.998;5.862;2023-05-07T15:51:33;3.65;;;3.35;;
54430;SDS011;40342;52.998;5.862;2023-05-07T15:54:00;4.05;;;3.65;;
54430;SDS011;40342;52.998;5.862;2023-05-07T15:56:25;4.57;;;4.18;;
54430;SDS011;40342;52.998;5.862;2023-05-07T15:58:51;4.63;;;3.83;;
54430;SDS011;40342;52.998;5.862;2023-05-07T16:01:17;5.60;;;3.90;;
54430;SDS011;40342;52.998;5.862;2023-05-07T16:03:43;4.47;;;4.07;;
54430;SDS011;40342;52.998;5.862;2023-05-07T16:06:08;4.10;;;3.70;;
54430;SDS011;40342;52.998;5.862;2023-05-07T16:08:36;4.13;;;3.72;;
54430;SDS011;40342;52.998;5.862;2023-05-07T16:11:04;3.60;;;3.30;;
54430;SDS011;40342;52.998;5.862;2023-05-07T16:13:29;3.80;;;3.50;;
54430;SDS011;40342;52.998;5.862;2023-05-07T16:15:55;3.67;;;3.38;;
54430;SDS011;40342;52.998;5.862;2023-05-07T16:18:25;3.83;;;3.47;;
54430;SDS011;40342;52.998;5.862;2023-05-07T16:20:50;3.40;;;3.10;;
54430;SDS011;40342;52.998;5.862;2023-05-07T16:23:16;3.90;;;3.53;;
54430;SDS011;40342;52.998;5.862;2023-05-07T16:25:42;3.35;;;3.05;;
54430;SDS011;40342;52.998;5.862;2023-05-07T16:28:07;4.40;;;3.47;;
54430;SDS011;40342;52.998;5.862;2023-05-07T16:30:33;3.42;;;3.22;;
54430;SDS011;40342;52.998;5.862;2023-05-07T16:32:58;3.47;;;3.17;;
54430;SDS011;40342;52.998;5.862;2023-05-07T16:35:24;3.90;;;3.53;;
54430;SDS011;40342;52.998;5.862;2023-05-07T16:37:50;3.10;;;2.88;;
54430;SDS011;40342;52.998;5.862;2023-05-07T16:40:16;3.38;;;3.05;;
54430;SDS011;40342;52.998;5.862;2023-05-07T16:42:41;3.33;;;3.10;;
54430;SDS011;40342;52.998;5.862;2023-05-07T16:45:07;3.35;;;3.05;;
54430;SDS011;40342;52.998;5.862;2023-05-07T16:47:33;3.92;;;3.13;;
54430;SDS011;40342;52.998;5.862;2023-05-07T16:49:58;3.85;;;3.47;;
54430;SDS011;40342;52.998;5.862;2023-05-07T16:52:25;3.95;;;3.50;;
54430;SDS011;40342;52.998;5.862;2023-05-07T16:54:51;4.28;;;3.65;;
54430;SDS011;40342;52.998;5.862;2023-05-07T16:57:22;4.20;;;3.60;;
54430;SDS011;40342;52.998;5.862;2023-05-07T16:59:48;4.28;;;3.67;;
54430;SDS011;40342;52.998;5.862;2023-05-07T17:02:13;3.80;;;3.50;;
54430;SDS011;40342;52.998;5.862;2023-05-07T17:04:39;3.95;;;3.60;;
54430;SDS011;40342;52.998;5.862;2023-05-07T17:07:04;3.70;;;3.40;;
54430;SDS011;40342;52.998;5.862;2023-05-07T17:09:30;3.90;;;3.60;;
54430;SDS011;40342;52.998;5.862;2023-05-07T17:11:56;3.55;;;3.28;;
54430;SDS011;40342;52.998;5.862;2023-05-07T17:14:21;4.10;;;3.65;;
54430;SDS011;40342;52.998;5.862;2023-05-07T17:16:47;3.42;;;3.15;;
54430;SDS011;40342;52.998;5.862;2023-05-07T17:19:12;4.13;;;3.72;;
54430;SDS011;40342;52.998;5.862;2023-05-07T17:21:38;3.85;;;3.50;;
54430;SDS011;40342;52.998;5.862;2023-05-07T17:24:03;3.20;;;2.90;;
54430;SDS011;40342;52.998;5.862;2023-05-07T17:26:30;3.80;;;3.40;;
54430;SDS011;40342;52.998;5.862;2023-05-07T17:28:55;3.95;;;3.65;;
54430;SDS011;40342;52.998;5.862;2023-05-07T17:31:21;3.33;;;3.03;;
54430;SDS011;40342;52.998;5.862;2023-05-07T17:33:46;3.72;;;3.42;;
54430;SDS011;40342;52.998;5.862;2023-05-07T17:36:12;4.10;;;3.55;;
54430;SDS011;40342;52.998;5.862;2023-05-07T17:38:38;4.05;;;3.75;;
54430;SDS011;40342;52.998;5.862;2023-05-07T17:41:03;3.65;;;3.35;;
54430;SDS011;40342;52.998;5.862;2023-05-07T17:43:29;4.30;;;3.92;;
54430;SDS011;40342;52.998;5.862;2023-05-07T17:45:54;4.03;;;3.67;;
54430;SDS011;40342;52.998;5.862;2023-05-07T17:48:20;3.80;;;3.50;;
54430;SDS011;40342;52.998;5.862;2023-05-07T17:50:45;3.53;;;3.22;;
54430;SDS011;40342;52.998;5.862;2023-05-07T17:53:11;3.50;;;3.20;;
54430;SDS011;40342;52.998;5.862;2023-05-07T17:55:43;3.58;;;3.20;;
54430;SDS011;40342;52.998;5.862;2023-05-07T17:58:10;3.42;;;3.13;;
54430;SDS011;40342;52.998;5.862;2023-05-07T18:00:36;3.72;;;3.42;;
54430;SDS011;40342;52.998;5.862;2023-05-07T18:03:02;3.80;;;3.50;;
54430;SDS011;40342;52.998;5.862;2023-05-07T18:05:28;4.10;;;3.70;;
54430;SDS011;40342;52.998;5.862;2023-05-07T18:07:54;3.75;;;3.47;;
54430;SDS011;40342;52.998;5.862;2023-05-07T18:10:21;3.33;;;3.13;;
54430;SDS011;40342;52.998;5.862;2023-05-07T18:12:47;3.65;;;3.35;;
54430;SDS011;40342;52.998;5.862;2023-05-07T18:15:13;3.78;;;3.47;;
54430;SDS011;40342;52.998;5.862;2023-05-07T18:17:39;3.60;;;3.30;;
54430;SDS011;40342;52.998;5.862;2023-05-07T18:20:04;3.15;;;2.95;;
54430;SDS011;40342;52.998;5.862;2023-05-07T18:22:32;3.35;;;3.08;;
54430;SDS011;40342;52.998;5.862;2023-05-07T18:24:58;3.28;;;2.95;;
54430;SDS011;40342;52.998;5.862;2023-05-07T18:27:24;3.72;;;3.42;;
54430;SDS011;40342;52.998;5.862;2023-05-07T18:29:49;4.00;;;3.70;;
54430;SDS011;40342;52.998;5.862;2023-05-07T18:32:15;3.20;;;3.00;;
54430;SDS011;40342;52.998;5.862;2023-05-07T18:34:41;3.47;;;3.10;;
54430;SDS011;40342;52.998;5.862;2023-05-07T18:37:06;3.90;;;3.60;;
54430;SDS011;40342;52.998;5.862;2023-05-07T18:39:33;3.65;;;3.35;;
54430;SDS011;40342;52.998;5.862;2023-05-07T18:41:59;3.45;;;3.15;;
54430;SDS011;40342;52.998;5.862;2023-05-07T18:44:25;3.20;;;3.00;;
54430;SDS011;40342;52.998;5.862;2023-05-07T18:46:51;3.60;;;3.33;;
54430;SDS011;40342;52.998;5.862;2023-05-07T18:49:17;3.47;;;3.17;;
54430;SDS011;40342;52.998;5.862;2023-05-07T18:51:42;3.38;;;3.17;;
54430;SDS011;40342;52.998;5.862;2023-05-07T18:54:09;3.65;;;3.30;;
54430;SDS011;40342;52.998;5.862;2023-05-07T18:56:34;3.70;;;3.40;;
54430;SDS011;40342;52.998;5.862;2023-05-07T18:59:00;4.20;;;3.80;;